sensor_id;sensor_type;location;lat;lon;timestamp;pressure;altitude;pressure_sealevel;temperature;humidity
80574;BME280;69929;52.390;13.078;2023-05-20T00:01:38;102322.19;;;10.63;67.85
80574;BME280;69929;52.390;13.078;2023-05-20T00:04:04;102324.13;;;10.55;67.95
80574;BME280;69929;52.390;13.078;2023-05-20T00:06:31;102321.59;;;10.49;67.88
80574;BME280;69929;52.390;13.078;2023-05-20T00:08:58;102324.25;;;10.47;68.39
80574;BME280;69929;52.390;13.078;2023-05-20T00:11:25;102317.19;;;10.47;68.25
80574;BME280;69929;52.390;13.078;2023-05-20T00:13:52;102324.34;;;10.42;68.67
80574;BME280;69929;52.390;13.078;2023-05-20T00:16:20;102323.41;;;10.46;68.50
80574;BME280;69929;52.390;13.078;2023-05-20T00:18:46;102328.81;;;10.40;69.07
80574;BME280;69929;52.390;13.078;2023-05-20T00:21:13;102329.63;;;10.42;68.51
80574;BME280;69929;52.390;13.078;2023-05-20T00:23:40;102334.16;;;10.37;68.97
80574;BME280;69929;52.390;13.078;2023-05-20T00:26:06;102336.88;;;10.31;68.95
80574;BME280;69929;52.390;13.078;2023-05-20T00:28:33;102336.00;;;10.31;69.23
80574;BME280;69929;52.390;13.078;2023-05-20T00:30:59;102329.88;;;10.30;69.36
80574;BME280;69929;52.390;13.078;2023-05-20T00:33:26;102328.09;;;10.29;69.45
80574;BME280;69929;52.390;13.078;2023-05-20T00:35:53;102323.75;;;10.26;69.90
80574;BME280;69929;52.390;13.078;2023-05-20T00:38:19;102330.03;;;10.21;69.61
80574;BME280;69929;52.390;13.078;2023-05-20T00:40:46;102322.03;;;10.25;69.48
80574;BME280;69929;52.390;13.078;2023-05-20T00:43:12;102319.31;;;10.28;69.51
80574;BME280;69929;52.390;13.078;2023-05-20T00:45:39;102328.09;;;10.29;69.51
80574;BME280;69929;52.390;13.078;2023-05-20T00:48:06;102323.69;;;10.29;69.89
80574;BME280;69929;52.390;13.078;2023-05-20T00:50:33;102321.94;;;10.30;70.19
80574;BME280;69929;52.390;13.078;2023-05-20T00:53:01;102326.34;;;10.28;69.92
80574;BME280;69929;52.390;13.078;2023-05-20T00:55:27;102316.72;;;10.25;70.40
80574;BME280;69929;52.390;13.078;2023-05-20T00:57:54;102323.81;;;10.23;69.75
80574;BME280;69929;52.390;13.078;2023-05-20T01:00:21;102313.31;;;10.20;70.16
80574;BME280;69929;52.390;13.078;2023-05-20T01:02:47;102316.03;;;10.16;70.40
80574;BME280;69929;52.390;13.078;2023-05-20T01:05:14;102307.38;;;10.07;70.58
80574;BME280;69929;52.390;13.078;2023-05-20T01:07:41;102303.91;;;10.05;71.32
80574;BME280;69929;52.390;13.078;2023-05-20T01:10:08;102309.09;;;10.08;71.32
80574;BME280;69929;52.390;13.078;2023-05-20T01:12:42;102305.56;;;10.09;71.00
80574;BME280;69929;52.390;13.078;2023-05-20T01:15:12;102305.56;;;10.09;70.77
80574;BME280;69929;52.390;13.078;2023-05-20T01:17:43;102309.06;;;10.11;70.98
80574;BME280;69929;52.390;13.078;2023-05-20T01:20:13;102302.00;;;10.14;71.29
80574;BME280;69929;52.390;13.078;2023-05-20T01:22:51;102306.34;;;10.15;70.84
80574;BME280;69929;52.390;13.078;2023-05-20T01:25:18;102307.31;;;10.12;71.49
80574;BME280;69929;52.390;13.078;2023-05-20T01:27:46;102309.94;;;10.12;71.37
80574;BME280;69929;52.390;13.078;2023-05-20T01:30:15;102298.47;;;10.11;71.65
80574;BME280;69929;52.390;13.078;2023-05-20T01:32:45;102307.38;;;10.07;71.34
80574;BME280;69929;52.390;13.078;2023-05-20T01:35:15;102304.78;;;10.06;71.98
80574;BME280;69929;52.390;13.078;2023-05-20T01:37:42;102289.03;;;10.00;72.05
80574;BME280;69929;52.390;13.078;2023-05-20T01:40:11;102290.88;;;9.96;72.09
80574;BME280;69929;52.390;13.078;2023-05-20T01:42:40;102288.22;;;9.96;72.24
80574;BME280;69929;52.390;13.078;2023-05-20T01:45:07;102289.16;;;9.92;72.59
80574;BME280;69929;52.390;13.078;2023-05-20T01:47:34;102287.53;;;9.86;72.85
80574;BME280;69929;52.390;13.078;2023-05-20T01:50:01;102291.94;;;9.86;73.12
80574;BME280;69929;52.390;13.078;2023-05-20T01:52:28;102284.91;;;9.85;73.36
80574;BME280;69929;52.390;13.078;2023-05-20T01:54:55;102285.81;;;9.82;73.14
80574;BME280;69929;52.390;13.078;2023-05-20T01:57:22;102279.72;;;9.79;73.18
80574;BME280;69929;52.390;13.078;2023-05-20T01:59:48;102279.81;;;9.72;73.89
80574;BME280;69929;52.390;13.078;2023-05-20T02:02:15;102281.56;;;9.73;73.56
80574;BME280;69929;52.390;13.078;2023-05-20T02:04:44;102282.56;;;9.69;73.77
80574;BME280;69929;52.390;13.078;2023-05-20T02:07:14;102276.41;;;9.67;74.03
80574;BME280;69929;52.390;13.078;2023-05-20T02:09:40;102284.31;;;9.67;74.28
80574;BME280;69929;52.390;13.078;2023-05-20T02:12:07;102283.50;;;9.65;74.27
80574;BME280;69929;52.390;13.078;2023-05-20T02:14:34;102283.44;;;9.68;74.81
80574;BME280;69929;52.390;13.078;2023-05-20T02:17:02;102278.16;;;9.68;74.60
80574;BME280;69929;52.390;13.078;2023-05-20T02:19:28;102285.22;;;9.68;74.80
80574;BME280;69929;52.390;13.078;2023-05-20T02:21:55;102286.06;;;9.68;74.43
80574;BME280;69929;52.390;13.078;2023-05-20T02:24:21;102287.75;;;9.72;74.52
80574;BME280;69929;52.390;13.078;2023-05-20T02:26:48;102286.09;;;9.67;74.73
80574;BME280;69929;52.390;13.078;2023-05-20T02:29:16;102284.38;;;9.64;74.88
80574;BME280;69929;52.390;13.078;2023-05-20T02:31:43;102283.50;;;9.65;75.14
80574;BME280;69929;52.390;13.078;2023-05-20T02:34:09;102278.16;;;9.68;74.66
80574;BME280;69929;52.390;13.078;2023-05-20T02:36:36;102288.72;;;9.68;75.11
80574;BME280;69929;52.390;13.078;2023-05-20T02:39:02;102280.78;;;9.70;75.12
80574;BME280;69929;52.390;13.078;2023-05-20T02:41:29;102283.34;;;9.74;75.53
80574;BME280;69929;52.390;13.078;2023-05-20T02:43:55;102293.72;;;9.84;75.29
80574;BME280;69929;52.390;13.078;2023-05-20T02:46:22;102288.31;;;9.90;74.56
80574;BME280;69929;52.390;13.078;2023-05-20T02:48:48;102293.56;;;9.93;74.72
80574;BME280;69929;52.390;13.078;2023-05-20T02:51:15;102296.13;;;9.98;74.62
80574;BME280;69929;52.390;13.078;2023-05-20T02:53:41;102294.25;;;10.03;74.32
80574;BME280;69929;52.390;13.078;2023-05-20T02:56:08;102298.63;;;10.05;74.42
80574;BME280;69929;52.390;13.078;2023-05-20T02:58:34;102292.41;;;10.08;74.71
80574;BME280;69929;52.390;13.078;2023-05-20T03:01:02;102294.91;;;10.16;73.88
80574;BME280;69929;52.390;13.078;2023-05-20T03:03:28;102303.66;;;10.18;73.89
80574;BME280;69929;52.390;13.078;2023-05-20T03:05:55;102299.31;;;10.15;74.07
80574;BME280;69929;52.390;13.078;2023-05-20T03:08:22;102303.59;;;10.21;73.86
80574;BME280;69929;52.390;13.078;2023-05-20T03:10:48;102307.03;;;10.26;73.69
80574;BME280;69929;52.390;13.078;2023-05-20T03:13:15;102304.38;;;10.26;74.06
80574;BME280;69929;52.390;13.078;2023-05-20T03:15:42;102300.75;;;10.32;73.55
80574;BME280;69929;52.390;13.078;2023-05-20T03:18:11;102308.50;;;10.42;73.39
80574;BME280;69929;52.390;13.078;2023-05-20T03:20:39;102310.25;;;10.43;73.22
80574;BME280;69929;52.390;13.078;2023-05-20T03:23:07;102309.31;;;10.44;73.66
80574;BME280;69929;52.390;13.078;2023-05-20T03:25:34;102302.34;;;10.42;73.32
80574;BME280;69929;52.390;13.078;2023-05-20T03:28:01;102303.22;;;10.41;73.76
80574;BME280;69929;52.390;13.078;2023-05-20T03:30:28;102304.91;;;10.46;73.60
80574;BME280;69929;52.390;13.078;2023-05-20T03:32:55;102304.88;;;10.48;73.15
80574;BME280;69929;52.390;13.078;2023-05-20T03:35:25;102308.31;;;10.52;73.26
80574;BME280;69929;52.390;13.078;2023-05-20T03:37:51;102306.69;;;10.44;73.72
80574;BME280;69929;52.390;13.078;2023-05-20T03:40:19;102303.09;;;10.49;73.45
80574;BME280;69929;52.390;13.078;2023-05-20T03:42:48;102299.63;;;10.46;73.60
80574;BME280;69929;52.390;13.078;2023-05-20T03:45:16;102308.38;;;10.49;73.35
80574;BME280;69929;52.390;13.078;2023-05-20T03:47:42;102311.06;;;10.45;73.40
80574;BME280;69929;52.390;13.078;2023-05-20T03:50:09;102313.63;;;10.50;73.49
80574;BME280;69929;52.390;13.078;2023-05-20T03:52:36;102306.44;;;10.57;72.96
80574;BME280;69929;52.390;13.078;2023-05-20T03:55:02;102301.91;;;10.62;73.42
80574;BME280;69929;52.390;13.078;2023-05-20T03:57:29;102306.31;;;10.63;72.61
80574;BME280;69929;52.390;13.078;2023-05-20T03:59:57;102306.28;;;10.64;73.04
80574;BME280;69929;52.390;13.078;2023-05-20T04:02:24;102301.03;;;10.63;72.83
80574;BME280;69929;52.390;13.078;2023-05-20T04:04:50;102301.81;;;10.68;72.94
80574;BME280;69929;52.390;13.078;2023-05-20T04:07:18;102293.75;;;10.74;72.73
80574;BME280;69929;52.390;13.078;2023-05-20T04:09:44;102302.56;;;10.73;72.89
80574;BME280;69929;52.390;13.078;2023-05-20T04:12:11;102301.78;;;10.70;72.88
80574;BME280;69929;52.390;13.078;2023-05-20T04:14:39;102299.03;;;10.74;73.03
80574;BME280;69929;52.390;13.078;2023-05-20T04:17:07;102290.16;;;10.75;72.98
80574;BME280;69929;52.390;13.078;2023-05-20T04:19:35;102295.41;;;10.78;72.52
80574;BME280;69929;52.390;13.078;2023-05-20T04:22:03;102293.50;;;10.83;72.72
80574;BME280;69929;52.390;13.078;2023-05-20T04:24:30;102298.81;;;10.83;72.34
80574;BME280;69929;52.390;13.078;2023-05-20T04:26:56;102302.25;;;10.89;72.70
80574;BME280;69929;52.390;13.078;2023-05-20T04:29:23;102295.22;;;10.88;72.20
80574;BME280;69929;52.390;13.078;2023-05-20T04:31:49;102296.88;;;10.92;71.96
80574;BME280;69929;52.390;13.078;2023-05-20T04:34:17;102302.31;;;10.86;72.67
80574;BME280;69929;52.390;13.078;2023-05-20T04:36:45;102300.56;;;10.84;72.44
80574;BME280;69929;52.390;13.078;2023-05-20T04:39:12;102302.31;;;10.86;72.42
80574;BME280;69929;52.390;13.078;2023-05-20T04:41:39;102302.16;;;10.92;72.63
80574;BME280;69929;52.390;13.078;2023-05-20T04:44:05;102313.63;;;10.92;72.32
80574;BME280;69929;52.390;13.078;2023-05-20T04:46:32;102303.00;;;10.94;72.94
80574;BME280;69929;52.390;13.078;2023-05-20T04:48:59;102305.59;;;10.97;72.36
80574;BME280;69929;52.390;13.078;2023-05-20T04:51:25;102293.25;;;10.96;72.61
80574;BME280;69929;52.390;13.078;2023-05-20T04:53:52;102300.16;;;11.01;72.54
80574;BME280;69929;52.390;13.078;2023-05-20T04:56:18;102294.25;;;10.90;72.46
80574;BME280;69929;52.390;13.078;2023-05-20T04:58:46;102297.59;;;10.98;72.78
80574;BME280;69929;52.390;13.078;2023-05-20T05:01:12;102294.78;;;11.06;72.38
80574;BME280;69929;52.390;13.078;2023-05-20T05:03:39;102280.53;;;11.13;72.27
80574;BME280;69929;52.390;13.078;2023-05-20T05:06:05;102282.25;;;11.14;72.09
80574;BME280;69929;52.390;13.078;2023-05-20T05:08:32;102289.34;;;11.12;71.86
80574;BME280;69929;52.390;13.078;2023-05-20T05:10:58;102285.72;;;11.16;71.75
80574;BME280;69929;52.390;13.078;2023-05-20T05:13:25;102281.28;;;11.18;72.15
80574;BME280;69929;52.390;13.078;2023-05-20T05:16:01;102283.84;;;11.22;71.71
80574;BME280;69929;52.390;13.078;2023-05-20T05:18:28;102283.91;;;11.18;71.90
80574;BME280;69929;52.390;13.078;2023-05-20T05:21:02;102278.63;;;11.18;71.71
80574;BME280;69929;52.390;13.078;2023-05-20T05:23:29;102276.88;;;11.17;71.69
80574;BME280;69929;52.390;13.078;2023-05-20T05:25:56;102276.66;;;11.27;72.05
80574;BME280;69929;52.390;13.078;2023-05-20T05:28:23;102285.28;;;11.35;72.05
80574;BME280;69929;52.390;13.078;2023-05-20T05:30:50;102279.06;;;11.36;71.65
80574;BME280;69929;52.390;13.078;2023-05-20T05:33:16;102285.16;;;11.41;71.28
80574;BME280;69929;52.390;13.078;2023-05-20T05:35:43;102277.06;;;11.46;70.97
80574;BME280;69929;52.390;13.078;2023-05-20T05:38:10;102284.97;;;11.47;70.99
80574;BME280;69929;52.390;13.078;2023-05-20T05:40:36;102276.41;;;11.36;71.26
80574;BME280;69929;52.390;13.078;2023-05-20T05:43:03;102274.69;;;11.35;71.96
80574;BME280;69929;52.390;13.078;2023-05-20T05:45:29;102269.25;;;11.41;71.43
80574;BME280;69929;52.390;13.078;2023-05-20T05:47:56;102270.97;;;11.42;71.46
80574;BME280;69929;52.390;13.078;2023-05-20T05:50:23;102271.06;;;11.39;71.44
80574;BME280;69929;52.390;13.078;2023-05-20T05:52:49;102274.56;;;11.41;71.74
80574;BME280;69929;52.390;13.078;2023-05-20T05:55:16;102277.91;;;11.48;72.13
80574;BME280;69929;52.390;13.078;2023-05-20T05:57:44;102270.69;;;11.54;71.68
80574;BME280;69929;52.390;13.078;2023-05-20T06:00:11;102268.84;;;11.56;71.03
80574;BME280;69929;52.390;13.078;2023-05-20T06:02:37;102266.09;;;11.61;71.17
80574;BME280;69929;52.390;13.078;2023-05-20T06:05:05;102261.59;;;11.65;70.93
80574;BME280;69929;52.390;13.078;2023-05-20T06:07:31;102263.34;;;11.66;71.53
80574;BME280;69929;52.390;13.078;2023-05-20T06:09:58;102265.22;;;11.61;70.74
80574;BME280;69929;52.390;13.078;2023-05-20T06:12:25;102260.69;;;11.66;70.87
80574;BME280;69929;52.390;13.078;2023-05-20T06:14:51;102261.34;;;11.74;70.85
80574;BME280;69929;52.390;13.078;2023-05-20T06:17:18;102266.31;;;11.86;70.61
80574;BME280;69929;52.390;13.078;2023-05-20T06:19:44;102271.31;;;11.99;70.21
80574;BME280;69929;52.390;13.078;2023-05-20T06:22:11;102269.88;;;11.85;70.33
80574;BME280;69929;52.390;13.078;2023-05-20T06:24:38;102278.56;;;11.90;70.40
80574;BME280;69929;52.390;13.078;2023-05-20T06:27:04;102276.69;;;11.96;70.17
80574;BME280;69929;52.390;13.078;2023-05-20T06:29:31;102275.03;;;11.91;70.26
80574;BME280;69929;52.390;13.078;2023-05-20T06:31:58;102281.38;;;11.84;70.70
80574;BME280;69929;52.390;13.078;2023-05-20T06:34:25;102284.72;;;11.92;70.65
80574;BME280;69929;52.390;13.078;2023-05-20T06:36:52;102284.53;;;12.00;70.29
80574;BME280;69929;52.390;13.078;2023-05-20T06:39:18;102288.28;;;12.24;69.83
80574;BME280;69929;52.390;13.078;2023-05-20T06:41:45;102282.91;;;12.26;69.22
80574;BME280;69929;52.390;13.078;2023-05-20T06:44:11;102288.16;;;12.27;69.37
80574;BME280;69929;52.390;13.078;2023-05-20T06:46:38;102289.38;;;12.47;69.43
80574;BME280;69929;52.390;13.078;2023-05-20T06:49:05;102283.81;;;12.56;69.27
80574;BME280;69929;52.390;13.078;2023-05-20T06:51:31;102290.97;;;12.54;68.83
80574;BME280;69929;52.390;13.078;2023-05-20T06:53:58;102293.69;;;12.51;69.44
80574;BME280;69929;52.390;13.078;2023-05-20T06:56:24;102285.75;;;12.51;68.85
80574;BME280;69929;52.390;13.078;2023-05-20T06:58:51;102289.31;;;12.50;69.09
80574;BME280;69929;52.390;13.078;2023-05-20T07:01:17;102277.84;;;12.49;68.87
80574;BME280;69929;52.390;13.078;2023-05-20T07:03:44;102281.88;;;12.32;69.55
80574;BME280;69929;52.390;13.078;2023-05-20T07:06:11;102281.06;;;12.29;69.62
80574;BME280;69929;52.390;13.078;2023-05-20T07:08:37;102278.47;;;12.28;70.23
80574;BME280;69929;52.390;13.078;2023-05-20T07:11:04;102280.78;;;12.39;69.68
80574;BME280;69929;52.390;13.078;2023-05-20T07:13:31;102272.34;;;12.56;69.11
80574;BME280;69929;52.390;13.078;2023-05-20T07:15:57;102273.13;;;12.59;69.39
80574;BME280;69929;52.390;13.078;2023-05-20T07:18:24;102267.72;;;12.62;69.06
80574;BME280;69929;52.390;13.078;2023-05-20T07:20:51;102273.38;;;12.50;69.54
80574;BME280;69929;52.390;13.078;2023-05-20T07:23:17;102260.97;;;12.52;69.15
80574;BME280;69929;52.390;13.078;2023-05-20T07:25:44;102257.72;;;12.72;68.80
80574;BME280;69929;52.390;13.078;2023-05-20T07:28:10;102248.41;;;12.87;68.46
80574;BME280;69929;52.390;13.078;2023-05-20T07:30:37;102252.34;;;12.74;68.49
80574;BME280;69929;52.390;13.078;2023-05-20T07:33:04;102254.78;;;12.80;68.43
80574;BME280;69929;52.390;13.078;2023-05-20T07:35:30;102261.38;;;12.96;67.78
80574;BME280;69929;52.390;13.078;2023-05-20T07:37:58;102261.47;;;12.93;67.74
80574;BME280;69929;52.390;13.078;2023-05-20T07:40:24;102254.06;;;12.75;68.19
80574;BME280;69929;52.390;13.078;2023-05-20T07:42:51;102250.75;;;12.68;68.60
80574;BME280;69929;52.390;13.078;2023-05-20T07:45:17;102255.28;;;12.64;68.70
80574;BME280;69929;52.390;13.078;2023-05-20T07:47:44;102247.81;;;12.77;68.31
80574;BME280;69929;52.390;13.078;2023-05-20T07:50:10;102244.88;;;12.87;68.24
80574;BME280;69929;52.390;13.078;2023-05-20T07:52:37;102251.91;;;12.88;67.96
80574;BME280;69929;52.390;13.078;2023-05-20T07:55:21;102247.59;;;13.12;67.25
80574;BME280;69929;52.390;13.078;2023-05-20T07:57:48;102238.97;;;13.33;66.75
80574;BME280;69929;52.390;13.078;2023-05-20T08:00:14;102234.75;;;13.53;66.02
80574;BME280;69929;52.390;13.078;2023-05-20T08:02:41;102241.16;;;13.72;65.43
80574;BME280;69929;52.390;13.078;2023-05-20T08:05:08;102240.84;;;13.82;64.71
80574;BME280;69929;52.390;13.078;2023-05-20T08:07:34;102238.91;;;13.87;65.03
80574;BME280;69929;52.390;13.078;2023-05-20T08:10:01;102227.81;;;13.99;64.25
80574;BME280;69929;52.390;13.078;2023-05-20T08:12:27;102232.78;;;13.85;64.46
80574;BME280;69929;52.390;13.078;2023-05-20T08:14:54;102225.13;;;13.75;64.39
80574;BME280;69929;52.390;13.078;2023-05-20T08:17:21;102225.81;;;13.81;64.57
80574;BME280;69929;52.390;13.078;2023-05-20T08:19:47;102220.13;;;13.66;64.73
80574;BME280;69929;52.390;13.078;2023-05-20T08:22:14;102223.16;;;13.81;64.69
80574;BME280;69929;52.390;13.078;2023-05-20T08:24:41;102216.47;;;13.94;64.14
80574;BME280;69929;52.390;13.078;2023-05-20T08:27:07;102210.97;;;14.24;63.45
80574;BME280;69929;52.390;13.078;2023-05-20T08:29:34;102210.75;;;14.52;62.59
80574;BME280;69929;52.390;13.078;2023-05-20T08:32:00;102208.44;;;14.89;61.58
80574;BME280;69929;52.390;13.078;2023-05-20T08:34:27;102203.88;;;14.70;61.51
80574;BME280;69929;52.390;13.078;2023-05-20T08:36:53;102191.38;;;14.94;60.41
80574;BME280;69929;52.390;13.078;2023-05-20T08:39:20;102196.66;;;15.16;60.26
80574;BME280;69929;52.390;13.078;2023-05-20T08:41:47;102187.16;;;15.11;59.80
80574;BME280;69929;52.390;13.078;2023-05-20T08:44:15;102196.63;;;14.96;60.15
80574;BME280;69929;52.390;13.078;2023-05-20T08:46:43;102208.81;;;14.79;60.92
80574;BME280;69929;52.390;13.078;2023-05-20T08:49:10;102208.09;;;14.98;60.43
80574;BME280;69929;52.390;13.078;2023-05-20T08:51:38;102205.97;;;15.06;59.87
80574;BME280;69929;52.390;13.078;2023-05-20T08:54:06;102199.66;;;14.86;60.09
80574;BME280;69929;52.390;13.078;2023-05-20T08:56:34;102199.97;;;14.79;60.59
80574;BME280;69929;52.390;13.078;2023-05-20T08:59:02;102206.66;;;14.67;60.94
80574;BME280;69929;52.390;13.078;2023-05-20T09:01:29;102208.44;;;14.89;60.53
80574;BME280;69929;52.390;13.078;2023-05-20T09:03:55;102203.66;;;15.19;59.82
80574;BME280;69929;52.390;13.078;2023-05-20T09:06:22;102217.72;;;15.22;59.51
80574;BME280;69929;52.390;13.078;2023-05-20T09:08:49;102209.97;;;15.16;59.66
80574;BME280;69929;52.390;13.078;2023-05-20T09:11:17;102208.22;;;14.95;60.38
80574;BME280;69929;52.390;13.078;2023-05-20T09:13:44;102207.09;;;14.78;60.70
80574;BME280;69929;52.390;13.078;2023-05-20T09:16:11;102213.00;;;14.63;61.55
80574;BME280;69929;52.390;13.078;2023-05-20T09:18:38;102217.97;;;14.72;61.67
80574;BME280;69929;52.390;13.078;2023-05-20T09:21:05;102211.91;;;14.91;61.48
80574;BME280;69929;52.390;13.078;2023-05-20T09:23:32;102203.78;;;15.16;60.59
80574;BME280;69929;52.390;13.078;2023-05-20T09:26:03;102211.84;;;15.14;60.35
80574;BME280;69929;52.390;13.078;2023-05-20T09:28:29;102205.31;;;15.21;59.92
80574;BME280;69929;52.390;13.078;2023-05-20T09:30:59;102202.81;;;15.39;59.68
80574;BME280;69929;52.390;13.078;2023-05-20T09:33:28;102217.53;;;15.48;59.50
80574;BME280;69929;52.390;13.078;2023-05-20T09:36:06;102206.69;;;15.52;59.65
80574;BME280;69929;52.390;13.078;2023-05-20T09:38:36;102206.94;;;15.67;58.90
80574;BME280;69929;52.390;13.078;2023-05-20T09:41:10;102206.69;;;15.52;59.35
80574;BME280;69929;52.390;13.078;2023-05-20T09:43:40;102207.72;;;15.69;58.62
80574;BME280;69929;52.390;13.078;2023-05-20T09:46:07;102206.59;;;15.76;58.36
80574;BME280;69929;52.390;13.078;2023-05-20T09:48:35;102204.59;;;15.59;59.08
80574;BME280;69929;52.390;13.078;2023-05-20T09:51:05;102204.00;;;15.52;59.28
80574;BME280;69929;52.390;13.078;2023-05-20T09:53:33;102200.81;;;15.65;58.99
80574;BME280;69929;52.390;13.078;2023-05-20T09:56:00;102202.81;;;15.80;58.99
80574;BME280;69929;52.390;13.078;2023-05-20T09:58:28;102206.34;;;15.81;58.62
80574;BME280;69929;52.390;13.078;2023-05-20T10:00:54;102187.63;;;15.62;59.01
80574;BME280;69929;52.390;13.078;2023-05-20T10:03:22;102175.75;;;15.69;59.20
80574;BME280;69929;52.390;13.078;2023-05-20T10:08:14;102178.81;;;16.01;58.16
80574;BME280;69929;52.390;13.078;2023-05-20T10:10:55;102182.41;;;16.00;57.68
80574;BME280;69929;52.390;13.078;2023-05-20T10:22:09;102173.50;;;17.12;54.22
80574;BME280;69929;52.390;13.078;2023-05-20T10:24:41;102174.91;;;16.46;55.85
80574;BME280;69929;52.390;13.078;2023-05-20T10:27:10;102182.78;;;16.30;56.98
80574;BME280;69929;52.390;13.078;2023-05-20T10:29:45;102184.56;;;16.29;57.06
80574;BME280;69929;52.390;13.078;2023-05-20T10:32:29;102171.59;;;16.41;56.30
80574;BME280;69929;52.390;13.078;2023-05-20T10:35:07;102163.78;;;16.55;56.31
80574;BME280;69929;52.390;13.078;2023-05-20T10:37:42;102175.44;;;16.72;55.94
80574;BME280;69929;52.390;13.078;2023-05-20T10:40:11;102167.22;;;16.95;54.95
80574;BME280;69929;52.390;13.078;2023-05-20T10:42:39;102161.78;;;17.14;54.52
80574;BME280;69929;52.390;13.078;2023-05-20T10:45:06;102170.13;;;17.25;54.64
80574;BME280;69929;52.390;13.078;2023-05-20T10:47:34;102161.69;;;17.84;53.28
80574;BME280;69929;52.390;13.078;2023-05-20T10:50:01;102151.59;;;18.07;52.48
80574;BME280;69929;52.390;13.078;2023-05-20T10:52:35;102150.22;;;18.47;51.57
80574;BME280;69929;52.390;13.078;2023-05-20T10:55:02;102149.63;;;18.42;51.25
80574;BME280;69929;52.390;13.078;2023-05-20T10:57:30;102146.94;;;18.26;51.40
80574;BME280;69929;52.390;13.078;2023-05-20T10:59:59;102146.38;;;17.88;52.38
80574;BME280;69929;52.390;13.078;2023-05-20T11:02:26;102139.03;;;17.91;52.72
80574;BME280;69929;52.390;13.078;2023-05-20T11:04:57;102131.16;;;19.00;49.66
80574;BME280;69929;52.390;13.078;2023-05-20T11:07:26;102128.09;;;19.94;47.29
80574;BME280;69929;52.390;13.078;2023-05-20T11:09:54;102126.84;;;18.81;49.51
80574;BME280;69929;52.390;13.078;2023-05-20T11:12:24;102120.28;;;18.41;50.79
80574;BME280;69929;52.390;13.078;2023-05-20T11:14:52;102114.84;;;18.42;51.08
80574;BME280;69929;52.390;13.078;2023-05-20T11:17:19;102124.22;;;18.17;51.53
80574;BME280;69929;52.390;13.078;2023-05-20T11:19:47;102111.81;;;18.79;49.95
80574;BME280;69929;52.390;13.078;2023-05-20T11:22:13;102115.72;;;19.62;47.47
80574;BME280;69929;52.390;13.078;2023-05-20T11:24:40;102126.22;;;21.95;42.78
80574;BME280;69929;52.390;13.078;2023-05-20T11:27:06;102120.44;;;21.37;43.36
80574;BME280;69929;52.390;13.078;2023-05-20T11:29:33;102115.38;;;21.71;42.50
80574;BME280;69929;52.390;13.078;2023-05-20T11:32:00;102109.22;;;19.95;46.43
80574;BME280;69929;52.390;13.078;2023-05-20T11:34:34;102116.34;;;21.31;43.71
80574;BME280;69929;52.390;13.078;2023-05-20T11:37:01;102099.97;;;21.08;43.86
80574;BME280;69929;52.390;13.078;2023-05-20T11:39:28;102092.13;;;22.19;41.80
80574;BME280;69929;52.390;13.078;2023-05-20T11:41:56;102094.00;;;22.43;41.60
80574;BME280;69929;52.390;13.078;2023-05-20T11:44:24;102099.13;;;23.06;39.48
80574;BME280;69929;52.390;13.078;2023-05-20T11:46:58;102091.91;;;22.71;40.31
80574;BME280;69929;52.390;13.078;2023-05-20T11:49:25;102085.66;;;24.19;37.10
80574;BME280;69929;52.390;13.078;2023-05-20T11:51:52;102085.84;;;24.38;36.62
80574;BME280;69929;52.390;13.078;2023-05-20T11:54:21;102079.44;;;24.83;35.87
80574;BME280;69929;52.390;13.078;2023-05-20T11:56:47;102081.50;;;24.15;36.82
80574;BME280;69929;52.390;13.078;2023-05-20T11:59:14;102081.25;;;23.16;39.16
80574;BME280;69929;52.390;13.078;2023-05-20T12:01:40;102067.81;;;23.61;38.50
80574;BME280;69929;52.390;13.078;2023-05-20T12:04:08;102054.34;;;22.45;39.74
80574;BME280;69929;52.390;13.078;2023-05-20T12:06:35;102059.44;;;22.00;41.30
80574;BME280;69929;52.390;13.078;2023-05-20T12:09:03;102083.81;;;20.28;45.23
80574;BME280;69929;52.390;13.078;2023-05-20T12:11:33;102080.22;;;21.35;43.22
80574;BME280;69929;52.390;13.078;2023-05-20T12:14:04;102067.81;;;23.50;39.13
80574;BME280;69929;52.390;13.078;2023-05-20T12:16:32;102060.00;;;22.05;40.98
80574;BME280;69929;52.390;13.078;2023-05-20T12:18:59;102057.25;;;23.70;38.55
80574;BME280;69929;52.390;13.078;2023-05-20T12:21:27;102048.53;;;25.07;35.71
80574;BME280;69929;52.390;13.078;2023-05-20T12:23:54;102047.75;;;24.09;37.45
80574;BME280;69929;52.390;13.078;2023-05-20T12:26:24;102050.88;;;23.37;38.80
80574;BME280;69929;52.390;13.078;2023-05-20T12:28:52;102039.22;;;23.14;39.29
80574;BME280;69929;52.390;13.078;2023-05-20T12:31:19;102039.88;;;22.82;40.09
80574;BME280;69929;52.390;13.078;2023-05-20T12:33:46;102035.41;;;23.95;37.68
80574;BME280;69929;52.390;13.078;2023-05-20T12:36:13;102019.50;;;24.46;36.89
80574;BME280;69929;52.390;13.078;2023-05-20T12:38:40;102036.03;;;24.31;37.25
80574;BME280;69929;52.390;13.078;2023-05-20T12:41:07;102034.28;;;24.30;37.39
80574;BME280;69929;52.390;13.078;2023-05-20T12:43:34;102036.03;;;24.64;36.15
80574;BME280;69929;52.390;13.078;2023-05-20T12:46:02;102024.75;;;24.59;36.40
80574;BME280;69929;52.390;13.078;2023-05-20T12:48:29;102021.19;;;23.71;38.20
80574;BME280;69929;52.390;13.078;2023-05-20T12:50:56;102013.25;;;25.90;34.32
80574;BME280;69929;52.390;13.078;2023-05-20T12:53:22;102018.50;;;25.31;34.96